Impacts METAR Board
IDs:

KIAH - Houston/Bush Intl, TX, US

Updated at: 2000 UTC 08 Feb 2023
Potential Impact None Slight Moderate High
Time 08/08Z 08/09Z 08/10Z 08/11Z 08/12Z 08/13Z 08/14Z 08/15Z 08/16Z 08/17Z 08/18Z 08/19Z 08/20Z
Temp66 68 68 70 70 71 71 72 73 76 77 76 58
Dewpt66 67 68 68 68 68 68 67 66 65 66 64 55
Altim30.00 29.97 29.97 29.96 29.97 29.98 29.99 30.00 30.01 30.01 29.98 29.93 29.96
VIS7 6 6 7 7 7 7 7 10 10 10 10 10
CIG6 5 6 9 10 12 14 15 18 250 29 33 9
CoverOVCOVCOVCOVCOVCOVCBKNBKNBKNBKNBKNOVCOVC
FltCatIFRIFRIFRIFRMVFRMVFRMVFRMVFRMVFRVFRMVFRVFRIFR
WX--BRBR-------------------TSRA
WDir150150150160160170170160180180190180290
WSpd12 12 11 12 15 10 13 13 9 15 14 9 9
WGst-- -- -- -- 23 19 -- 20 21 25 22 16 17
Raw hourly METARs
KIAH 080753Z 15012KT 7SM OVC006 19/19 A3000 RMK RAB15E24 P0000
KIAH 080853Z 15012KT 6SM BR OVC005 20/19 A2997 RMK AO2 RAB17E28 SLP148 P0000 60000 T02000194 58017
KIAH 080953Z 15011KT 6SM BR BKN006 OVC011 20/20 A2997 RMK AO2 RAB0859E10 SLP148 P0000 T02000200
KIAH 081053Z 16012KT 7SM OVC009 21/20 A2996 RMK AO2 RAB07E19 SLP146 P0000 T02110200
KIAH 081153Z 16015G23KT 7SM BKN010 OVC020 21/20 A2997 RMK AO2 SLP147 60000 T02110200 10211 20194 55001
KIAH 081253Z 17010G19KT 7SM BKN012 OVC021 22/20 A2998 RMK AO2 SLP152 T02170200
KIAH 081353Z 17013KT 7SM BKN014 BKN025 22/20 A2999 RMK AO2 SLP156 T02170200
KIAH 081453Z 16013G20KT 7SM BKN015 BKN250 22/19 A3000 RMK AO2 SLP159 T02220194 51012
KIAH 081553Z 18009G21KT 10SM BKN018 BKN250 23/19 A3001 RMK AO2 SLP163 T02280189
KIAH 081653Z 18015G25KT 10SM SCT025 BKN250 24/18 A3001 RMK AO2 PK WND 19027/1639 SLP160 T02440183
KIAH 081753Z 19014G22KT 10SM BKN029 BKN250 25/19 A2998 RMK AO2 PK WND 16027/1736 SLP151 T02500189 10256 20211 58008
KIAH 081853Z 18009G16KT 150V210 10SM BKN033 BKN070 BKN110 OVC250 24/18 A2993 RMK AO2 LTG DSNT W AND NW SLP136 CB DSNT SW-NW MOVG NE T02440178
KIAH 081953Z 29009G17KT 10SM -TSRA BKN009 BKN035CB OVC060 14/13 A2996 RMK AO2 RAB43 TSB31 SLP146 OCNL LTGICCG AND TS SW-N MOVG NE PK WND 27032/32 P0000 T01440128



Page loaded:  20:01 UTC  |   12:01 PM Pacific  |   01:01 PM Mountain  |   02:01 PM Central  |   03:01 PM Eastern

 

ADVISORIES

FORECASTS

FORECASTS

OBSERVATIONS

USER TOOLS

ABOUT US